Airfield :
LOGIN :

Register | Disclaimer

   EN    FR    IT 

 










Legend :    VFR   Marginal VFR   IFR   Intensive IFR   Very Intensive IFR
Visi :
Ceiling :
>= 8 km
>= 3000ft
5 to 8 km
1000 to 3000 ft
1500m to 5 km
500 to 1000 ft
800 to 1500m
200 to 500 ft
< 800m
< 200 ft
Symbols :   Thunderstorms  Fog  Heavy snow  Heavy precipitations  Wind > 20 kt
SIGMETs :     Misc.  Thunderstorms  Icing  Turbulence  Mountain Waves  Volcanic Ashes






- Airport Elevation : 106 ft
- IATA code : NRN


EDLV - Weeze

EXPIRED METARs :
  • 172250Z VRB03KT 7000 -RA SCT022 04/04 Q1007
  • 172220Z VRB03KT 5000 -RA SCT023 04/04 Q1007

TAF TAF EDLV
Valid from the 17 at 18:00 until the 18 at 18:00 UTC


171700Z 1718/1818 36007KT 9000 BKN035
TEMPO 1721/1802 3500 RA
BECMG 1721/1724 BKN010
BECMG 1802/1805 30005KT 3000 -DZRA OVC007
TEMPO 1805/1812 2500 DZRA BKN003
TEMPO 1812/1818 RA
BECMG 1812/1815 6000
BECMG 1815/1818 24010KT



MET'MAP, your aeronautical weather chart ! - Copyright ORBIFLY December 2007 - Disclaimer

ORBIFLY MET'MAP TEAM :

Programming & Development : Alexandra Zaïnal
Concept & Development : Baudouin d'Aumeries
Co-Development & Prog : Marc-Olivier Méhu
Technical & hardware support : Manuel Goepfert

Contact : metmap@orbifly.com




SOURCES & CREDITS :

   NOAA